Piapot, Canada
Current Conditions -  °F | °C
As of 3:00 PM on Friday 19 Dec 2014 (Local Time) from CYYN Reporting Station
Clear Clear  
Wind Chill: 29°   Ceiling: Unl
Heat Index: 36°   Visibility: 9mi
Dew Point: 30°   Wind: 9mph
Humidity: 81%   Direction: 200°SSW
Pressure: 29.78"   Gusts: NA
Location:  49.98°N, 109.12°W
Report Text: CYYN 192100Z AUTO 20008KT 9SM CLR 02/M01 A2978 RMK SLP121
Loading
Personal Weather Stations






























Interactive Weather Map New forecast layout! Learn more

10-Day Weather Forecast

Advertisements
Track Severe Weather on mobile